ADDS METAR Data

Data at: 0503 UTC 20 Apr 2018

METAR for:KLWM (Lawrence Muni, MA, US)
Text:KLWM 200454Z AUTO 29009KT 10SM OVC090 05/M03 A2984 RMK AO2 SLP106 T00501028 400780022
Temperature: 5.0°C ( 41°F)
Dewpoint: -2.8°C ( 27°F) [RH = 57%]
Pressure (altimeter):29.84 inches Hg (1010.6 mb) [Sea level pressure: 1010.6 mb]
Winds:from the WNW (290 degrees) at 10 MPH (9 knots; 4.6 m/s)
Visibility:10 or more sm (16+ km)
Ceiling:9000 feet AGL
Clouds: overcast cloud deck at 9000 feet AGL
QC Flag:automated observation with no human augmentation